sensor_id;sensor_type;location;lat;lon;timestamp;temperature;humidity
33368;DHT22;19724;51.114;13.906;2022-12-05T00:00:11;4.90;99.90
33368;DHT22;19724;51.114;13.906;2022-12-05T00:02:37;4.90;99.90
33368;DHT22;19724;51.114;13.906;2022-12-05T00:05:03;4.90;99.90
33368;DHT22;19724;51.114;13.906;2022-12-05T00:07:28;4.90;99.90
33368;DHT22;19724;51.114;13.906;2022-12-05T00:09:54;4.90;99.90
33368;DHT22;19724;51.114;13.906;2022-12-05T00:12:20;4.90;99.90
33368;DHT22;19724;51.114;13.906;2022-12-05T00:14:45;4.90;99.90
33368;DHT22;19724;51.114;13.906;2022-12-05T00:17:11;5.00;99.90
33368;DHT22;19724;51.114;13.906;2022-12-05T00:19:36;5.00;99.90
33368;DHT22;19724;51.114;13.906;2022-12-05T00:22:03;5.00;99.90
33368;DHT22;19724;51.114;13.906;2022-12-05T00:24:28;5.00;99.90
33368;DHT22;19724;51.114;13.906;2022-12-05T00:26:54;5.00;99.90
33368;DHT22;19724;51.114;13.906;2022-12-05T00:29:19;5.00;99.90
33368;DHT22;19724;51.114;13.906;2022-12-05T00:31:45;5.10;99.90
33368;DHT22;19724;51.114;13.906;2022-12-05T00:34:10;5.10;99.90
33368;DHT22;19724;51.114;13.906;2022-12-05T00:36:36;5.10;99.90
33368;DHT22;19724;51.114;13.906;2022-12-05T00:39:05;5.10;99.90
33368;DHT22;19724;51.114;13.906;2022-12-05T00:41:31;5.10;99.90
33368;DHT22;19724;51.114;13.906;2022-12-05T00:43:59;5.10;99.90
33368;DHT22;19724;51.114;13.906;2022-12-05T00:46:26;5.20;99.90
33368;DHT22;19724;51.114;13.906;2022-12-05T00:48:53;5.20;99.90
33368;DHT22;19724;51.114;13.906;2022-12-05T00:51:21;5.20;99.90
33368;DHT22;19724;51.114;13.906;2022-12-05T00:53:47;5.20;99.90
33368;DHT22;19724;51.114;13.906;2022-12-05T00:56:19;5.30;99.90
33368;DHT22;19724;51.114;13.906;2022-12-05T00:58:45;5.30;99.90
33368;DHT22;19724;51.114;13.906;2022-12-05T01:01:32;5.30;99.90
33368;DHT22;19724;51.114;13.906;2022-12-05T01:04:03;5.40;99.90
33368;DHT22;19724;51.114;13.906;2022-12-05T01:06:29;5.50;99.90
33368;DHT22;19724;51.114;13.906;2022-12-05T01:08:55;5.60;99.90
33368;DHT22;19724;51.114;13.906;2022-12-05T01:11:22;5.70;99.90
33368;DHT22;19724;51.114;13.906;2022-12-05T01:13:49;5.80;99.90
33368;DHT22;19724;51.114;13.906;2022-12-05T01:16:26;5.80;99.90
33368;DHT22;19724;51.114;13.906;2022-12-05T01:18:53;5.90;99.90
33368;DHT22;19724;51.114;13.906;2022-12-05T01:21:19;5.90;99.90
33368;DHT22;19724;51.114;13.906;2022-12-05T01:23:45;6.00;99.90
33368;DHT22;19724;51.114;13.906;2022-12-05T01:26:12;6.00;99.90
33368;DHT22;19724;51.114;13.906;2022-12-05T01:28:38;6.00;99.90
33368;DHT22;19724;51.114;13.906;2022-12-05T01:31:07;6.00;99.90
33368;DHT22;19724;51.114;13.906;2022-12-05T01:33:34;6.10;99.90
33368;DHT22;19724;51.114;13.906;2022-12-05T01:36:00;6.10;99.90
33368;DHT22;19724;51.114;13.906;2022-12-05T01:38:26;6.10;99.90
33368;DHT22;19724;51.114;13.906;2022-12-05T01:41:05;6.10;99.90
33368;DHT22;19724;51.114;13.906;2022-12-05T01:43:31;6.10;99.90
33368;DHT22;19724;51.114;13.906;2022-12-05T01:45:57;6.10;99.90
33368;DHT22;19724;51.114;13.906;2022-12-05T01:48:30;6.20;99.90
33368;DHT22;19724;51.114;13.906;2022-12-05T01:50:58;6.20;99.90
33368;DHT22;19724;51.114;13.906;2022-12-05T01:53:24;6.20;99.90
33368;DHT22;19724;51.114;13.906;2022-12-05T01:55:50;6.20;99.90
33368;DHT22;19724;51.114;13.906;2022-12-05T01:58:17;6.20;99.90
33368;DHT22;19724;51.114;13.906;2022-12-05T02:00:43;6.20;99.90
33368;DHT22;19724;51.114;13.906;2022-12-05T02:03:15;6.20;99.90
33368;DHT22;19724;51.114;13.906;2022-12-05T02:05:41;6.20;99.90
33368;DHT22;19724;51.114;13.906;2022-12-05T02:08:09;6.20;99.90
33368;DHT22;19724;51.114;13.906;2022-12-05T02:10:39;6.20;99.90
33368;DHT22;19724;51.114;13.906;2022-12-05T02:13:23;6.20;99.90
33368;DHT22;19724;51.114;13.906;2022-12-05T02:18:56;6.20;99.90
33368;DHT22;19724;51.114;13.906;2022-12-05T02:27:32;6.20;99.90
33368;DHT22;19724;51.114;13.906;2022-12-05T02:32:31;6.20;99.90
33368;DHT22;19724;51.114;13.906;2022-12-05T02:35:24;6.20;99.90
33368;DHT22;19724;51.114;13.906;2022-12-05T02:46:11;6.20;99.90
33368;DHT22;19724;51.114;13.906;2022-12-05T02:48:38;6.20;99.90
33368;DHT22;19724;51.114;13.906;2022-12-05T02:51:06;6.20;99.90
33368;DHT22;19724;51.114;13.906;2022-12-05T02:53:34;6.20;99.90
33368;DHT22;19724;51.114;13.906;2022-12-05T02:56:02;6.20;99.90
33368;DHT22;19724;51.114;13.906;2022-12-05T02:58:33;6.20;99.90
33368;DHT22;19724;51.114;13.906;2022-12-05T03:01:01;6.20;99.90
33368;DHT22;19724;51.114;13.906;2022-12-05T03:03:28;6.20;99.90
33368;DHT22;19724;51.114;13.906;2022-12-05T03:06:04;6.20;99.90
33368;DHT22;19724;51.114;13.906;2022-12-05T03:08:42;6.20;99.90
33368;DHT22;19724;51.114;13.906;2022-12-05T03:11:09;6.20;99.90
33368;DHT22;19724;51.114;13.906;2022-12-05T03:13:41;6.20;99.90
33368;DHT22;19724;51.114;13.906;2022-12-05T03:16:17;6.20;99.90
33368;DHT22;19724;51.114;13.906;2022-12-05T03:18:48;6.20;99.90
33368;DHT22;19724;51.114;13.906;2022-12-05T03:21:48;6.20;99.90
33368;DHT22;19724;51.114;13.906;2022-12-05T03:24:17;6.20;99.90
33368;DHT22;19724;51.114;13.906;2022-12-05T03:30:15;6.20;99.90
33368;DHT22;19724;51.114;13.906;2022-12-05T03:35:08;6.20;99.90
33368;DHT22;19724;51.114;13.906;2022-12-05T03:37:49;6.20;99.90
33368;DHT22;19724;51.114;13.906;2022-12-05T03:40:31;6.20;99.90
33368;DHT22;19724;51.114;13.906;2022-12-05T03:45:55;6.20;99.90
33368;DHT22;19724;51.114;13.906;2022-12-05T03:48:34;6.20;99.90
33368;DHT22;19724;51.114;13.906;2022-12-05T03:51:05;6.20;99.90
33368;DHT22;19724;51.114;13.906;2022-12-05T03:53:39;6.10;99.90
33368;DHT22;19724;51.114;13.906;2022-12-05T03:56:11;6.10;99.90
33368;DHT22;19724;51.114;13.906;2022-12-05T03:58:48;6.10;99.90
33368;DHT22;19724;51.114;13.906;2022-12-05T04:01:17;6.10;99.90
33368;DHT22;19724;51.114;13.906;2022-12-05T04:03:51;6.10;99.90
33368;DHT22;19724;51.114;13.906;2022-12-05T04:06:24;6.10;99.90
33368;DHT22;19724;51.114;13.906;2022-12-05T04:08:56;6.10;99.90
33368;DHT22;19724;51.114;13.906;2022-12-05T04:11:26;6.10;99.90
33368;DHT22;19724;51.114;13.906;2022-12-05T04:13:54;6.10;99.90
33368;DHT22;19724;51.114;13.906;2022-12-05T04:16:53;6.10;99.90
33368;DHT22;19724;51.114;13.906;2022-12-05T04:22:21;6.20;99.90
33368;DHT22;19724;51.114;13.906;2022-12-05T04:24:49;6.20;99.90
33368;DHT22;19724;51.114;13.906;2022-12-05T04:27:41;6.20;99.90
33368;DHT22;19724;51.114;13.906;2022-12-05T04:30:20;6.20;99.90
33368;DHT22;19724;51.114;13.906;2022-12-05T04:33:14;6.20;99.90
33368;DHT22;19724;51.114;13.906;2022-12-05T04:35:51;6.20;99.90
33368;DHT22;19724;51.114;13.906;2022-12-05T04:41:25;6.20;99.90
33368;DHT22;19724;51.114;13.906;2022-12-05T04:43:54;6.10;99.90
33368;DHT22;19724;51.114;13.906;2022-12-05T04:46:23;6.10;99.90
33368;DHT22;19724;51.114;13.906;2022-12-05T04:48:53;6.10;99.90
33368;DHT22;19724;51.114;13.906;2022-12-05T04:51:24;6.10;99.90
33368;DHT22;19724;51.114;13.906;2022-12-05T04:53:53;6.10;99.90
33368;DHT22;19724;51.114;13.906;2022-12-05T04:56:21;6.10;99.90
33368;DHT22;19724;51.114;13.906;2022-12-05T04:58:49;6.10;99.90
33368;DHT22;19724;51.114;13.906;2022-12-05T05:01:20;6.10;99.90
33368;DHT22;19724;51.114;13.906;2022-12-05T05:04:11;6.10;99.90
33368;DHT22;19724;51.114;13.906;2022-12-05T05:06:38;6.10;99.90
33368;DHT22;19724;51.114;13.906;2022-12-05T05:09:04;6.10;99.90
33368;DHT22;19724;51.114;13.906;2022-12-05T05:11:34;6.10;99.90
33368;DHT22;19724;51.114;13.906;2022-12-05T05:14:00;6.10;99.90
33368;DHT22;19724;51.114;13.906;2022-12-05T05:16:34;6.10;99.90
33368;DHT22;19724;51.114;13.906;2022-12-05T05:19:00;6.10;99.90
33368;DHT22;19724;51.114;13.906;2022-12-05T05:21:35;6.10;99.90
33368;DHT22;19724;51.114;13.906;2022-12-05T05:24:01;6.10;99.90
33368;DHT22;19724;51.114;13.906;2022-12-05T05:26:28;6.10;99.90
33368;DHT22;19724;51.114;13.906;2022-12-05T05:28:55;6.10;99.90
33368;DHT22;19724;51.114;13.906;2022-12-05T05:31:21;6.10;99.90
33368;DHT22;19724;51.114;13.906;2022-12-05T05:33:51;6.10;99.90
33368;DHT22;19724;51.114;13.906;2022-12-05T05:36:17;6.10;99.90
33368;DHT22;19724;51.114;13.906;2022-12-05T05:38:46;6.10;99.90
33368;DHT22;19724;51.114;13.906;2022-12-05T05:41:21;6.10;99.90
33368;DHT22;19724;51.114;13.906;2022-12-05T05:43:48;6.10;99.90
33368;DHT22;19724;51.114;13.906;2022-12-05T05:46:15;6.10;99.90
33368;DHT22;19724;51.114;13.906;2022-12-05T05:48:40;6.10;99.90
33368;DHT22;19724;51.114;13.906;2022-12-05T05:51:09;6.10;99.90
33368;DHT22;19724;51.114;13.906;2022-12-05T05:53:35;6.10;99.90
33368;DHT22;19724;51.114;13.906;2022-12-05T05:56:05;6.10;99.90
33368;DHT22;19724;51.114;13.906;2022-12-05T05:58:31;6.10;99.90
33368;DHT22;19724;51.114;13.906;2022-12-05T06:01:11;6.10;99.90
33368;DHT22;19724;51.114;13.906;2022-12-05T06:03:37;6.10;99.90
33368;DHT22;19724;51.114;13.906;2022-12-05T06:06:06;6.10;99.90
33368;DHT22;19724;51.114;13.906;2022-12-05T06:08:34;6.10;99.90
33368;DHT22;19724;51.114;13.906;2022-12-05T06:11:04;6.10;99.90
33368;DHT22;19724;51.114;13.906;2022-12-05T06:13:29;6.10;99.90
33368;DHT22;19724;51.114;13.906;2022-12-05T06:15:55;6.20;99.90
33368;DHT22;19724;51.114;13.906;2022-12-05T06:18:20;6.10;99.90
33368;DHT22;19724;51.114;13.906;2022-12-05T06:20:56;6.10;99.90
33368;DHT22;19724;51.114;13.906;2022-12-05T06:23:23;6.10;99.90
33368;DHT22;19724;51.114;13.906;2022-12-05T06:25:50;6.10;99.90
33368;DHT22;19724;51.114;13.906;2022-12-05T06:28:17;6.10;99.90
33368;DHT22;19724;51.114;13.906;2022-12-05T06:30:43;6.10;99.90
33368;DHT22;19724;51.114;13.906;2022-12-05T06:33:08;6.10;99.90
33368;DHT22;19724;51.114;13.906;2022-12-05T06:35:34;6.10;99.90
33368;DHT22;19724;51.114;13.906;2022-12-05T06:38:00;6.20;99.90
33368;DHT22;19724;51.114;13.906;2022-12-05T06:40:25;6.10;99.90
33368;DHT22;19724;51.114;13.906;2022-12-05T06:42:51;6.10;99.90
33368;DHT22;19724;51.114;13.906;2022-12-05T06:45:16;6.10;99.90
33368;DHT22;19724;51.114;13.906;2022-12-05T06:47:42;6.10;99.90
33368;DHT22;19724;51.114;13.906;2022-12-05T06:50:08;6.10;99.90
33368;DHT22;19724;51.114;13.906;2022-12-05T06:52:33;6.10;99.90
33368;DHT22;19724;51.114;13.906;2022-12-05T06:54:59;6.10;99.90
33368;DHT22;19724;51.114;13.906;2022-12-05T06:57:26;6.10;99.90
33368;DHT22;19724;51.114;13.906;2022-12-05T06:59:52;6.10;99.90
33368;DHT22;19724;51.114;13.906;2022-12-05T07:02:37;6.10;99.90
33368;DHT22;19724;51.114;13.906;2022-12-05T07:05:03;6.10;99.90
33368;DHT22;19724;51.114;13.906;2022-12-05T07:07:29;6.10;99.90
33368;DHT22;19724;51.114;13.906;2022-12-05T07:09:54;6.10;99.90
33368;DHT22;19724;51.114;13.906;2022-12-05T07:12:20;6.10;99.90
33368;DHT22;19724;51.114;13.906;2022-12-05T07:14:45;6.10;99.90
33368;DHT22;19724;51.114;13.906;2022-12-05T07:17:12;6.10;99.90
33368;DHT22;19724;51.114;13.906;2022-12-05T07:19:37;6.20;99.90
33368;DHT22;19724;51.114;13.906;2022-12-05T07:22:03;6.10;99.90
33368;DHT22;19724;51.114;13.906;2022-12-05T07:24:29;6.20;99.90
33368;DHT22;19724;51.114;13.906;2022-12-05T07:26:54;6.20;99.90
33368;DHT22;19724;51.114;13.906;2022-12-05T07:29:20;6.20;99.90
33368;DHT22;19724;51.114;13.906;2022-12-05T07:31:45;6.20;99.90
33368;DHT22;19724;51.114;13.906;2022-12-05T07:34:11;6.20;99.90
33368;DHT22;19724;51.114;13.906;2022-12-05T07:36:37;6.20;99.90
33368;DHT22;19724;51.114;13.906;2022-12-05T07:39:02;6.20;99.90
33368;DHT22;19724;51.114;13.906;2022-12-05T07:41:31;6.20;99.90
33368;DHT22;19724;51.114;13.906;2022-12-05T07:43:58;6.20;99.90
33368;DHT22;19724;51.114;13.906;2022-12-05T07:46:25;6.20;99.90
33368;DHT22;19724;51.114;13.906;2022-12-05T07:48:51;6.20;99.90
33368;DHT22;19724;51.114;13.906;2022-12-05T07:51:18;6.20;99.90
33368;DHT22;19724;51.114;13.906;2022-12-05T07:53:44;6.30;99.90
33368;DHT22;19724;51.114;13.906;2022-12-05T07:56:11;6.30;99.90
33368;DHT22;19724;51.114;13.906;2022-12-05T07:58:39;6.30;99.90
33368;DHT22;19724;51.114;13.906;2022-12-05T08:01:11;6.30;99.90
33368;DHT22;19724;51.114;13.906;2022-12-05T08:03:38;6.30;99.90
33368;DHT22;19724;51.114;13.906;2022-12-05T08:06:10;6.30;99.90
33368;DHT22;19724;51.114;13.906;2022-12-05T08:08:36;6.30;99.90
33368;DHT22;19724;51.114;13.906;2022-12-05T08:11:06;6.30;99.90
33368;DHT22;19724;51.114;13.906;2022-12-05T08:13:32;6.30;99.90
33368;DHT22;19724;51.114;13.906;2022-12-05T08:16:05;6.30;99.90
33368;DHT22;19724;51.114;13.906;2022-12-05T08:18:32;6.30;99.90
33368;DHT22;19724;51.114;13.906;2022-12-05T08:21:05;6.30;99.90
33368;DHT22;19724;51.114;13.906;2022-12-05T08:23:31;6.30;99.90
33368;DHT22;19724;51.114;13.906;2022-12-05T08:26:24;6.30;99.90
33368;DHT22;19724;51.114;13.906;2022-12-05T08:28:56;6.30;99.90
33368;DHT22;19724;51.114;13.906;2022-12-05T08:31:23;6.30;99.90
33368;DHT22;19724;51.114;13.906;2022-12-05T08:33:50;6.30;99.90
33368;DHT22;19724;51.114;13.906;2022-12-05T08:36:16;6.30;99.90
33368;DHT22;19724;51.114;13.906;2022-12-05T08:38:43;6.30;99.90
33368;DHT22;19724;51.114;13.906;2022-12-05T08:41:11;6.30;99.90
33368;DHT22;19724;51.114;13.906;2022-12-05T08:43:37;6.30;99.90
33368;DHT22;19724;51.114;13.906;2022-12-05T08:46:03;6.30;99.90
33368;DHT22;19724;51.114;13.906;2022-12-05T08:48:29;6.30;99.90
33368;DHT22;19724;51.114;13.906;2022-12-05T08:50:55;6.40;99.90
33368;DHT22;19724;51.114;13.906;2022-12-05T08:53:21;6.40;99.90
33368;DHT22;19724;51.114;13.906;2022-12-05T08:55:47;6.40;99.90
33368;DHT22;19724;51.114;13.906;2022-12-05T08:58:12;6.40;99.90
33368;DHT22;19724;51.114;13.906;2022-12-05T09:00:39;6.40;99.90
33368;DHT22;19724;51.114;13.906;2022-12-05T09:03:05;6.40;99.90
33368;DHT22;19724;51.114;13.906;2022-12-05T09:05:30;6.50;99.90
33368;DHT22;19724;51.114;13.906;2022-12-05T09:07:56;6.50;99.90
33368;DHT22;19724;51.114;13.906;2022-12-05T09:10:23;6.50;99.90
33368;DHT22;19724;51.114;13.906;2022-12-05T09:12:49;6.60;99.90
33368;DHT22;19724;51.114;13.906;2022-12-05T09:15:15;6.60;99.90
33368;DHT22;19724;51.114;13.906;2022-12-05T09:17:41;6.60;99.90
33368;DHT22;19724;51.114;13.906;2022-12-05T09:20:07;6.60;99.90
33368;DHT22;19724;51.114;13.906;2022-12-05T09:22:34;6.60;99.90
33368;DHT22;19724;51.114;13.906;2022-12-05T09:24:59;6.60;99.90
33368;DHT22;19724;51.114;13.906;2022-12-05T09:27:27;6.60;99.90
33368;DHT22;19724;51.114;13.906;2022-12-05T09:29:52;6.60;99.90
33368;DHT22;19724;51.114;13.906;2022-12-05T09:32:18;6.60;99.90
33368;DHT22;19724;51.114;13.906;2022-12-05T09:34:43;6.60;99.90
33368;DHT22;19724;51.114;13.906;2022-12-05T09:37:09;6.60;99.90
33368;DHT22;19724;51.114;13.906;2022-12-05T09:39:34;6.60;99.90
33368;DHT22;19724;51.114;13.906;2022-12-05T09:42:33;6.60;99.90
33368;DHT22;19724;51.114;13.906;2022-12-05T09:50:22;6.70;99.90
33368;DHT22;19724;51.114;13.906;2022-12-05T09:55:37;6.70;99.90
33368;DHT22;19724;51.114;13.906;2022-12-05T09:58:04;6.70;99.90
33368;DHT22;19724;51.114;13.906;2022-12-05T10:00:38;6.70;99.90
33368;DHT22;19724;51.114;13.906;2022-12-05T10:06:12;6.70;99.90
33368;DHT22;19724;51.114;13.906;2022-12-05T10:11:33;6.70;99.90
33368;DHT22;19724;51.114;13.906;2022-12-05T10:14:21;6.70;99.90
33368;DHT22;19724;51.114;13.906;2022-12-05T10:16:53;6.60;99.90
33368;DHT22;19724;51.114;13.906;2022-12-05T10:19:27;6.60;99.90
33368;DHT22;19724;51.114;13.906;2022-12-05T10:21:58;6.60;99.90
33368;DHT22;19724;51.114;13.906;2022-12-05T10:24:35;6.60;99.90
33368;DHT22;19724;51.114;13.906;2022-12-05T10:27:05;6.60;99.90
33368;DHT22;19724;51.114;13.906;2022-12-05T10:29:39;6.60;99.90
33368;DHT22;19724;51.114;13.906;2022-12-05T10:32:21;6.60;99.90
33368;DHT22;19724;51.114;13.906;2022-12-05T10:34:49;6.50;99.90
33368;DHT22;19724;51.114;13.906;2022-12-05T10:37:20;6.50;99.90
33368;DHT22;19724;51.114;13.906;2022-12-05T10:39:47;6.50;99.90
33368;DHT22;19724;51.114;13.906;2022-12-05T10:42:16;6.50;99.90
33368;DHT22;19724;51.114;13.906;2022-12-05T10:44:43;6.50;99.90
33368;DHT22;19724;51.114;13.906;2022-12-05T10:47:10;6.50;99.90
33368;DHT22;19724;51.114;13.906;2022-12-05T10:49:37;6.50;99.90
33368;DHT22;19724;51.114;13.906;2022-12-05T10:52:03;6.50;99.90
33368;DHT22;19724;51.114;13.906;2022-12-05T10:54:32;6.50;99.90
33368;DHT22;19724;51.114;13.906;2022-12-05T10:56:59;6.50;99.90
33368;DHT22;19724;51.114;13.906;2022-12-05T10:59:42;6.50;99.90
33368;DHT22;19724;51.114;13.906;2022-12-05T11:02:27;6.50;99.90
33368;DHT22;19724;51.114;13.906;2022-12-05T11:04:54;6.40;99.90
33368;DHT22;19724;51.114;13.906;2022-12-05T11:10:17;6.50;99.90
33368;DHT22;19724;51.114;13.906;2022-12-05T11:12:43;6.50;99.90
33368;DHT22;19724;51.114;13.906;2022-12-05T11:17:44;6.50;99.90
33368;DHT22;19724;51.114;13.906;2022-12-05T11:22:43;6.50;99.90
33368;DHT22;19724;51.114;13.906;2022-12-05T11:25:32;6.50;99.90
33368;DHT22;19724;51.114;13.906;2022-12-05T11:28:00;6.50;99.90
33368;DHT22;19724;51.114;13.906;2022-12-05T11:33:26;6.50;99.90
33368;DHT22;19724;51.114;13.906;2022-12-05T11:35:54;6.50;99.90
33368;DHT22;19724;51.114;13.906;2022-12-05T11:38:27;6.50;99.90
33368;DHT22;19724;51.114;13.906;2022-12-05T11:41:10;6.50;99.90
33368;DHT22;19724;51.114;13.906;2022-12-05T11:46:54;6.50;99.90
33368;DHT22;19724;51.114;13.906;2022-12-05T11:55:27;6.40;99.90
33368;DHT22;19724;51.114;13.906;2022-12-05T11:58:14;6.40;99.90
33368;DHT22;19724;51.114;13.906;2022-12-05T12:10:13;6.50;99.90
33368;DHT22;19724;51.114;13.906;2022-12-05T12:15:40;6.60;99.90
33368;DHT22;19724;51.114;13.906;2022-12-05T12:18:45;6.60;99.90
33368;DHT22;19724;51.114;13.906;2022-12-05T12:27:32;6.60;99.90
33368;DHT22;19724;51.114;13.906;2022-12-05T12:30:19;6.60;99.90
33368;DHT22;19724;51.114;13.906;2022-12-05T12:32:57;6.60;99.90
33368;DHT22;19724;51.114;13.906;2022-12-05T12:35:36;6.60;99.90
33368;DHT22;19724;51.114;13.906;2022-12-05T12:41:40;6.60;99.90
33368;DHT22;19724;51.114;13.906;2022-12-05T12:44:26;6.60;99.90
33368;DHT22;19724;51.114;13.906;2022-12-05T12:47:10;6.50;99.90
33368;DHT22;19724;51.114;13.906;2022-12-05T12:49:52;6.50;99.90
33368;DHT22;19724;51.114;13.906;2022-12-05T12:52:27;6.50;99.90
33368;DHT22;19724;51.114;13.906;2022-12-05T12:55:24;6.60;99.90
33368;DHT22;19724;51.114;13.906;2022-12-05T12:58:16;6.50;99.90
33368;DHT22;19724;51.114;13.906;2022-12-05T13:01:04;6.60;99.90
33368;DHT22;19724;51.114;13.906;2022-12-05T13:03:58;6.60;99.90
33368;DHT22;19724;51.114;13.906;2022-12-05T13:07:00;6.50;99.90
33368;DHT22;19724;51.114;13.906;2022-12-05T13:09:29;6.50;99.90
33368;DHT22;19724;51.114;13.906;2022-12-05T13:11:59;6.50;99.90
33368;DHT22;19724;51.114;13.906;2022-12-05T13:14:28;6.50;99.90
33368;DHT22;19724;51.114;13.906;2022-12-05T13:16:57;6.50;99.90
33368;DHT22;19724;51.114;13.906;2022-12-05T13:19:29;6.50;99.90
33368;DHT22;19724;51.114;13.906;2022-12-05T13:22:02;6.50;99.90
33368;DHT22;19724;51.114;13.906;2022-12-05T13:24:28;6.50;99.90
33368;DHT22;19724;51.114;13.906;2022-12-05T13:26:58;6.50;99.90
33368;DHT22;19724;51.114;13.906;2022-12-05T13:29:31;6.50;99.90
33368;DHT22;19724;51.114;13.906;2022-12-05T13:31:59;6.50;99.90
33368;DHT22;19724;51.114;13.906;2022-12-05T13:36:56;6.50;99.90
33368;DHT22;19724;51.114;13.906;2022-12-05T13:39:49;6.50;99.90
33368;DHT22;19724;51.114;13.906;2022-12-05T13:42:34;6.50;99.90
33368;DHT22;19724;51.114;13.906;2022-12-05T13:47:51;6.40;99.90
33368;DHT22;19724;51.114;13.906;2022-12-05T13:53:01;6.50;99.90
33368;DHT22;19724;51.114;13.906;2022-12-05T13:55:53;6.50;99.90
33368;DHT22;19724;51.114;13.906;2022-12-05T14:00:44;6.50;99.90
33368;DHT22;19724;51.114;13.906;2022-12-05T14:05:58;6.60;99.90
33368;DHT22;19724;51.114;13.906;2022-12-05T14:15:50;6.50;99.90
33368;DHT22;19724;51.114;13.906;2022-12-05T14:18:25;6.50;99.90
33368;DHT22;19724;51.114;13.906;2022-12-05T14:21:13;6.40;99.90
33368;DHT22;19724;51.114;13.906;2022-12-05T14:32:31;6.40;99.90
33368;DHT22;19724;51.114;13.906;2022-12-05T14:35:18;6.50;99.90
33368;DHT22;19724;51.114;13.906;2022-12-05T14:40:30;6.50;99.90
33368;DHT22;19724;51.114;13.906;2022-12-05T14:43:15;6.50;99.90
33368;DHT22;19724;51.114;13.906;2022-12-05T14:46:03;6.50;99.90
33368;DHT22;19724;51.114;13.906;2022-12-05T14:48:38;6.40;99.90
33368;DHT22;19724;51.114;13.906;2022-12-05T14:51:44;6.40;99.90
33368;DHT22;19724;51.114;13.906;2022-12-05T14:54:15;6.40;99.90
33368;DHT22;19724;51.114;13.906;2022-12-05T14:56:59;6.30;99.90
33368;DHT22;19724;51.114;13.906;2022-12-05T14:59:33;6.30;99.90
33368;DHT22;19724;51.114;13.906;2022-12-05T15:02:03;6.40;99.90
33368;DHT22;19724;51.114;13.906;2022-12-05T15:07:16;6.40;99.90
33368;DHT22;19724;51.114;13.906;2022-12-05T15:12:31;6.30;99.90
33368;DHT22;19724;51.114;13.906;2022-12-05T15:15:09;6.30;99.90
33368;DHT22;19724;51.114;13.906;2022-12-05T15:18:00;6.30;99.90
33368;DHT22;19724;51.114;13.906;2022-12-05T15:20:43;6.30;99.90
33368;DHT22;19724;51.114;13.906;2022-12-05T15:23:56;6.20;99.90
33368;DHT22;19724;51.114;13.906;2022-12-05T15:29:12;6.20;99.90
33368;DHT22;19724;51.114;13.906;2022-12-05T15:31:45;6.20;99.90
33368;DHT22;19724;51.114;13.906;2022-12-05T15:34:19;6.20;99.90
33368;DHT22;19724;51.114;13.906;2022-12-05T15:36:54;6.20;99.90
33368;DHT22;19724;51.114;13.906;2022-12-05T15:39:24;6.20;99.90
33368;DHT22;19724;51.114;13.906;2022-12-05T15:41:53;6.20;99.90
33368;DHT22;19724;51.114;13.906;2022-12-05T15:44:20;6.20;99.90
33368;DHT22;19724;51.114;13.906;2022-12-05T15:46:54;6.20;99.90
33368;DHT22;19724;51.114;13.906;2022-12-05T15:49:23;6.10;99.90
33368;DHT22;19724;51.114;13.906;2022-12-05T15:54:38;6.10;99.90
33368;DHT22;19724;51.114;13.906;2022-12-05T15:57:21;6.10;99.90
33368;DHT22;19724;51.114;13.906;2022-12-05T15:59:54;6.20;99.90
33368;DHT22;19724;51.114;13.906;2022-12-05T16:02:46;6.10;99.90
33368;DHT22;19724;51.114;13.906;2022-12-05T16:05:36;6.10;99.90
33368;DHT22;19724;51.114;13.906;2022-12-05T16:08:04;6.20;99.90
33368;DHT22;19724;51.114;13.906;2022-12-05T16:10:31;6.10;99.90
33368;DHT22;19724;51.114;13.906;2022-12-05T16:13:06;6.10;99.90
33368;DHT22;19724;51.114;13.906;2022-12-05T16:15:35;6.10;99.90
33368;DHT22;19724;51.114;13.906;2022-12-05T16:18:02;6.00;99.90
33368;DHT22;19724;51.114;13.906;2022-12-05T16:20:35;6.00;99.90
33368;DHT22;19724;51.114;13.906;2022-12-05T16:23:27;6.00;99.90
33368;DHT22;19724;51.114;13.906;2022-12-05T16:25:53;6.10;99.90
33368;DHT22;19724;51.114;13.906;2022-12-05T16:28:33;6.00;99.90
33368;DHT22;19724;51.114;13.906;2022-12-05T16:31:00;6.00;99.90
33368;DHT22;19724;51.114;13.906;2022-12-05T16:33:28;6.00;99.90
33368;DHT22;19724;51.114;13.906;2022-12-05T16:35:54;6.00;99.90
33368;DHT22;19724;51.114;13.906;2022-12-05T16:38:23;6.00;99.90
33368;DHT22;19724;51.114;13.906;2022-12-05T16:40:53;6.00;99.90
33368;DHT22;19724;51.114;13.906;2022-12-05T16:45:45;6.10;99.90
33368;DHT22;19724;51.114;13.906;2022-12-05T16:48:26;6.00;99.90
33368;DHT22;19724;51.114;13.906;2022-12-05T16:53:50;6.00;99.90
33368;DHT22;19724;51.114;13.906;2022-12-05T16:56:22;6.00;99.90
33368;DHT22;19724;51.114;13.906;2022-12-05T16:58:48;6.00;99.90
33368;DHT22;19724;51.114;13.906;2022-12-05T17:01:20;6.00;99.90
33368;DHT22;19724;51.114;13.906;2022-12-05T17:03:46;5.90;99.90
33368;DHT22;19724;51.114;13.906;2022-12-05T17:06:12;6.00;99.90
33368;DHT22;19724;51.114;13.906;2022-12-05T17:08:39;5.90;99.90
33368;DHT22;19724;51.114;13.906;2022-12-05T17:11:09;5.90;99.90
33368;DHT22;19724;51.114;13.906;2022-12-05T17:13:36;5.80;99.90
33368;DHT22;19724;51.114;13.906;2022-12-05T17:16:02;5.90;99.90
33368;DHT22;19724;51.114;13.906;2022-12-05T17:18:27;5.90;99.90
33368;DHT22;19724;51.114;13.906;2022-12-05T17:20:54;6.00;99.90
33368;DHT22;19724;51.114;13.906;2022-12-05T17:23:21;5.90;99.90
33368;DHT22;19724;51.114;13.906;2022-12-05T17:25:49;5.90;99.90
33368;DHT22;19724;51.114;13.906;2022-12-05T17:28:15;5.90;99.90
33368;DHT22;19724;51.114;13.906;2022-12-05T17:30:41;5.90;99.90
33368;DHT22;19724;51.114;13.906;2022-12-05T17:33:14;5.90;99.90
33368;DHT22;19724;51.114;13.906;2022-12-05T17:35:40;5.90;99.90
33368;DHT22;19724;51.114;13.906;2022-12-05T17:38:06;5.90;99.90
33368;DHT22;19724;51.114;13.906;2022-12-05T17:40:32;5.90;99.90
33368;DHT22;19724;51.114;13.906;2022-12-05T17:42:58;5.90;99.90
33368;DHT22;19724;51.114;13.906;2022-12-05T17:45:24;5.90;99.90
33368;DHT22;19724;51.114;13.906;2022-12-05T17:47:50;5.90;99.90
33368;DHT22;19724;51.114;13.906;2022-12-05T17:50:20;5.90;99.90
33368;DHT22;19724;51.114;13.906;2022-12-05T17:52:46;5.90;99.90
33368;DHT22;19724;51.114;13.906;2022-12-05T17:55:27;5.80;99.90
33368;DHT22;19724;51.114;13.906;2022-12-05T17:57:54;5.80;99.90
33368;DHT22;19724;51.114;13.906;2022-12-05T18:00:21;5.80;99.90
33368;DHT22;19724;51.114;13.906;2022-12-05T18:02:47;5.80;99.90
33368;DHT22;19724;51.114;13.906;2022-12-05T18:05:13;5.80;99.90
33368;DHT22;19724;51.114;13.906;2022-12-05T18:07:41;5.70;99.90
33368;DHT22;19724;51.114;13.906;2022-12-05T18:10:10;5.70;99.90
33368;DHT22;19724;51.114;13.906;2022-12-05T18:12:36;5.80;99.90